Česky Dansk Deutsch English Español Suomi Français Magyar Italiano Nederlands norsk Polski Português svenska Türkçe

 

Het Weer

Le Mans (Frankrijk)

20:00, 20 augustus 2016 (GMT)

NWNNE
WE
SWSSE
Home            
Le Mans Alencon Tours Angers Chateaudun Toussus Le Noble Chartres Orleans Romorantin Evreux Rennes Caen Poitiers Nantes Chateauroux Villacoublay La Heve Rouen La Roche-Sur-Yon Dinard Paris-Orly Niort Paris Met Center

Om een weerknop op uw website of weblog te plaatsen, copieer onderstaande code en plak die in uw pagina. In het eerste vakje staat HTML-code, in het tweede vakje UBB-code.


Add to Google

Details

Wind speed:3 bf, 7 kn, 3.6 m/s, 8.1 miles/h, 13.0 km/h
Wind direction:SSW, 200° - W, 260°
Visibility:Greater than 10000 m, 10 km, 32800 ft, 6.2 miles
Clouds:CAVOC
Temperature:18°C, 64°F
Dew-point:10°C, 50°F
Atmospheric pressure:1018 hPa, 763.6 mmHg, 30.06 inHg, 1.005 atm
Relative humidity:59.5 %
METAR:LFRM 202000Z AUTO 23007KT 200V260 CAVOK 18/10 Q1018

Snelkoppelingen

Actuele weersinformatie van de hele wereld. Voeg locaties toe met het plus (+) symbool. Deze snelkoppelingen kunnen worden toegevoegd aan Google.

Lid van de Technetium groep

website free tracking
StatCounter NetStat W3C Validator

19-05-2022 03:24:34
astro.technetium.be money.technetium.be phote.technetium.be tafeltennistafel.technetium.be www.ligfiets.net